sensor_id;sensor_type;location;lat;lon;timestamp;P1;durP1;ratioP1;P2;durP2;ratioP2
37239;SDS011;23130;48.760;9.178;2023-02-28T00:00:29;4.10;;;2.35;;
37239;SDS011;23130;48.760;9.178;2023-02-28T00:02:54;4.13;;;2.25;;
37239;SDS011;23130;48.760;9.178;2023-02-28T00:05:20;5.63;;;2.33;;
37239;SDS011;23130;48.760;9.178;2023-02-28T00:07:47;3.28;;;1.63;;
37239;SDS011;23130;48.760;9.178;2023-02-28T00:10:15;4.35;;;1.95;;
37239;SDS011;23130;48.760;9.178;2023-02-28T00:12:46;3.78;;;1.83;;
37239;SDS011;23130;48.760;9.178;2023-02-28T00:15:12;3.80;;;2.10;;
37239;SDS011;23130;48.760;9.178;2023-02-28T00:17:38;4.53;;;2.03;;
37239;SDS011;23130;48.760;9.178;2023-02-28T00:20:04;3.78;;;2.10;;
37239;SDS011;23130;48.760;9.178;2023-02-28T00:22:33;4.88;;;2.42;;
37239;SDS011;23130;48.760;9.178;2023-02-28T00:24:59;7.00;;;2.17;;
37239;SDS011;23130;48.760;9.178;2023-02-28T00:27:25;4.30;;;2.17;;
37239;SDS011;23130;48.760;9.178;2023-02-28T00:29:50;4.00;;;1.80;;
37239;SDS011;23130;48.760;9.178;2023-02-28T00:32:16;7.38;;;2.25;;
37239;SDS011;23130;48.760;9.178;2023-02-28T00:34:43;4.80;;;1.90;;
37239;SDS011;23130;48.760;9.178;2023-02-28T00:37:09;4.22;;;2.20;;
37239;SDS011;23130;48.760;9.178;2023-02-28T00:39:37;3.15;;;2.20;;
37239;SDS011;23130;48.760;9.178;2023-02-28T00:42:04;4.35;;;2.85;;
37239;SDS011;23130;48.760;9.178;2023-02-28T00:44:30;2.80;;;2.00;;
37239;SDS011;23130;48.760;9.178;2023-02-28T00:46:57;4.53;;;2.17;;
37239;SDS011;23130;48.760;9.178;2023-02-28T00:49:23;5.32;;;1.65;;
37239;SDS011;23130;48.760;9.178;2023-02-28T00:51:49;6.63;;;2.60;;
37239;SDS011;23130;48.760;9.178;2023-02-28T00:54:15;3.30;;;1.80;;
37239;SDS011;23130;48.760;9.178;2023-02-28T00:56:41;3.30;;;1.88;;
37239;SDS011;23130;48.760;9.178;2023-02-28T00:59:07;5.05;;;2.50;;
37239;SDS011;23130;48.760;9.178;2023-02-28T01:01:33;3.80;;;2.05;;
37239;SDS011;23130;48.760;9.178;2023-02-28T01:03:59;3.63;;;2.03;;
37239;SDS011;23130;48.760;9.178;2023-02-28T01:06:25;2.42;;;1.50;;
37239;SDS011;23130;48.760;9.178;2023-02-28T01:08:51;4.70;;;1.95;;
37239;SDS011;23130;48.760;9.178;2023-02-28T01:11:17;4.90;;;2.05;;
37239;SDS011;23130;48.760;9.178;2023-02-28T01:13:43;5.75;;;2.67;;
37239;SDS011;23130;48.760;9.178;2023-02-28T01:16:10;5.53;;;2.60;;
37239;SDS011;23130;48.760;9.178;2023-02-28T01:18:36;4.45;;;1.88;;
37239;SDS011;23130;48.760;9.178;2023-02-28T01:21:03;3.88;;;1.55;;
37239;SDS011;23130;48.760;9.178;2023-02-28T01:23:30;6.05;;;2.17;;
37239;SDS011;23130;48.760;9.178;2023-02-28T01:25:56;4.22;;;2.15;;
37239;SDS011;23130;48.760;9.178;2023-02-28T01:28:21;4.43;;;2.35;;
37239;SDS011;23130;48.760;9.178;2023-02-28T01:30:50;8.30;;;3.05;;
37239;SDS011;23130;48.760;9.178;2023-02-28T01:33:16;5.07;;;2.35;;
37239;SDS011;23130;48.760;9.178;2023-02-28T01:35:42;2.58;;;1.80;;
37239;SDS011;23130;48.760;9.178;2023-02-28T01:38:07;5.68;;;2.22;;
37239;SDS011;23130;48.760;9.178;2023-02-28T01:40:33;3.83;;;2.05;;
37239;SDS011;23130;48.760;9.178;2023-02-28T01:42:58;6.40;;;2.55;;
37239;SDS011;23130;48.760;9.178;2023-02-28T01:45:31;5.13;;;2.95;;
37239;SDS011;23130;48.760;9.178;2023-02-28T01:48:00;4.80;;;2.22;;
37239;SDS011;23130;48.760;9.178;2023-02-28T01:50:31;5.35;;;2.60;;
37239;SDS011;23130;48.760;9.178;2023-02-28T01:53:04;3.17;;;1.95;;
37239;SDS011;23130;48.760;9.178;2023-02-28T01:55:34;4.50;;;2.72;;
37239;SDS011;23130;48.760;9.178;2023-02-28T01:58:02;4.53;;;2.53;;
37239;SDS011;23130;48.760;9.178;2023-02-28T02:00:30;4.85;;;2.10;;
37239;SDS011;23130;48.760;9.178;2023-02-28T02:02:57;4.20;;;2.50;;
37239;SDS011;23130;48.760;9.178;2023-02-28T02:05:27;7.00;;;3.25;;
37239;SDS011;23130;48.760;9.178;2023-02-28T02:07:56;5.32;;;2.13;;
37239;SDS011;23130;48.760;9.178;2023-02-28T02:10:31;6.43;;;2.25;;
37239;SDS011;23130;48.760;9.178;2023-02-28T02:19:06;6.10;;;2.70;;
37239;SDS011;23130;48.760;9.178;2023-02-28T02:22:00;6.32;;;2.85;;
37239;SDS011;23130;48.760;9.178;2023-02-28T02:35:55;6.30;;;3.22;;
37239;SDS011;23130;48.760;9.178;2023-02-28T02:38:32;4.40;;;2.78;;
37239;SDS011;23130;48.760;9.178;2023-02-28T02:43:40;8.70;;;3.25;;
37239;SDS011;23130;48.760;9.178;2023-02-28T02:49:02;6.10;;;3.42;;
37239;SDS011;23130;48.760;9.178;2023-02-28T02:51:33;8.32;;;3.42;;
37239;SDS011;23130;48.760;9.178;2023-02-28T02:57:02;6.28;;;3.20;;
37239;SDS011;23130;48.760;9.178;2023-02-28T02:59:33;5.10;;;3.03;;
37239;SDS011;23130;48.760;9.178;2023-02-28T03:02:01;4.00;;;2.70;;
37239;SDS011;23130;48.760;9.178;2023-02-28T03:04:33;4.38;;;2.97;;
37239;SDS011;23130;48.760;9.178;2023-02-28T03:07:03;6.50;;;3.40;;
37239;SDS011;23130;48.760;9.178;2023-02-28T03:09:29;6.32;;;3.63;;
37239;SDS011;23130;48.760;9.178;2023-02-28T03:11:59;5.22;;;3.33;;
37239;SDS011;23130;48.760;9.178;2023-02-28T03:14:42;5.50;;;3.58;;
37239;SDS011;23130;48.760;9.178;2023-02-28T03:17:19;8.20;;;4.93;;
37239;SDS011;23130;48.760;9.178;2023-02-28T03:19:55;7.82;;;4.25;;
37239;SDS011;23130;48.760;9.178;2023-02-28T03:28:00;7.68;;;4.95;;
37239;SDS011;23130;48.760;9.178;2023-02-28T03:30:36;6.50;;;3.55;;
37239;SDS011;23130;48.760;9.178;2023-02-28T03:33:30;5.05;;;3.03;;
37239;SDS011;23130;48.760;9.178;2023-02-28T03:36:04;8.93;;;4.60;;
37239;SDS011;23130;48.760;9.178;2023-02-28T03:38:46;5.20;;;3.15;;
37239;SDS011;23130;48.760;9.178;2023-02-28T03:41:23;5.78;;;3.80;;
37239;SDS011;23130;48.760;9.178;2023-02-28T03:44:00;6.55;;;3.78;;
37239;SDS011;23130;48.760;9.178;2023-02-28T03:46:31;7.57;;;3.50;;
37239;SDS011;23130;48.760;9.178;2023-02-28T03:49:07;4.72;;;3.25;;
37239;SDS011;23130;48.760;9.178;2023-02-28T03:51:40;6.40;;;3.88;;
37239;SDS011;23130;48.760;9.178;2023-02-28T03:54:15;6.90;;;3.90;;
37239;SDS011;23130;48.760;9.178;2023-02-28T03:56:48;7.75;;;4.50;;
37239;SDS011;23130;48.760;9.178;2023-02-28T03:59:25;4.68;;;3.17;;
37239;SDS011;23130;48.760;9.178;2023-02-28T04:01:53;7.80;;;3.92;;
37239;SDS011;23130;48.760;9.178;2023-02-28T04:04:20;8.60;;;3.80;;
37239;SDS011;23130;48.760;9.178;2023-02-28T04:06:47;5.30;;;3.10;;
37239;SDS011;23130;48.760;9.178;2023-02-28T04:09:18;5.32;;;3.22;;
37239;SDS011;23130;48.760;9.178;2023-02-28T04:11:49;6.93;;;3.42;;
37239;SDS011;23130;48.760;9.178;2023-02-28T04:14:20;6.03;;;3.70;;
37239;SDS011;23130;48.760;9.178;2023-02-28T04:16:46;8.27;;;3.60;;
37239;SDS011;23130;48.760;9.178;2023-02-28T04:19:12;7.70;;;4.53;;
37239;SDS011;23130;48.760;9.178;2023-02-28T04:21:39;8.23;;;3.97;;
37239;SDS011;23130;48.760;9.178;2023-02-28T04:24:07;9.40;;;3.78;;
37239;SDS011;23130;48.760;9.178;2023-02-28T04:26:38;8.43;;;3.97;;
37239;SDS011;23130;48.760;9.178;2023-02-28T04:29:05;6.22;;;3.60;;
37239;SDS011;23130;48.760;9.178;2023-02-28T04:31:35;6.03;;;4.05;;
37239;SDS011;23130;48.760;9.178;2023-02-28T04:34:01;6.45;;;3.95;;
37239;SDS011;23130;48.760;9.178;2023-02-28T04:36:27;9.57;;;4.93;;
37239;SDS011;23130;48.760;9.178;2023-02-28T04:38:53;8.32;;;3.97;;
37239;SDS011;23130;48.760;9.178;2023-02-28T04:41:19;6.65;;;3.55;;
37239;SDS011;23130;48.760;9.178;2023-02-28T04:43:45;7.25;;;4.00;;
37239;SDS011;23130;48.760;9.178;2023-02-28T04:46:11;5.07;;;3.28;;
37239;SDS011;23130;48.760;9.178;2023-02-28T04:48:37;6.65;;;3.80;;
37239;SDS011;23130;48.760;9.178;2023-02-28T04:51:08;8.90;;;4.22;;
37239;SDS011;23130;48.760;9.178;2023-02-28T04:53:36;8.05;;;4.53;;
37239;SDS011;23130;48.760;9.178;2023-02-28T04:56:03;8.43;;;4.45;;
37239;SDS011;23130;48.760;9.178;2023-02-28T04:58:29;8.60;;;5.40;;
37239;SDS011;23130;48.760;9.178;2023-02-28T05:01:00;7.18;;;4.07;;
37239;SDS011;23130;48.760;9.178;2023-02-28T05:03:30;8.75;;;3.97;;
37239;SDS011;23130;48.760;9.178;2023-02-28T05:05:55;9.73;;;4.40;;
37239;SDS011;23130;48.760;9.178;2023-02-28T05:08:21;8.00;;;4.65;;
37239;SDS011;23130;48.760;9.178;2023-02-28T05:10:46;6.80;;;3.70;;
37239;SDS011;23130;48.760;9.178;2023-02-28T05:13:12;8.18;;;4.45;;
37239;SDS011;23130;48.760;9.178;2023-02-28T05:15:38;8.77;;;4.97;;
37239;SDS011;23130;48.760;9.178;2023-02-28T05:18:03;8.55;;;5.07;;
37239;SDS011;23130;48.760;9.178;2023-02-28T05:20:29;7.07;;;4.18;;
37239;SDS011;23130;48.760;9.178;2023-02-28T05:22:55;8.23;;;3.88;;
37239;SDS011;23130;48.760;9.178;2023-02-28T05:25:22;7.75;;;4.20;;
37239;SDS011;23130;48.760;9.178;2023-02-28T05:27:48;10.65;;;4.05;;
37239;SDS011;23130;48.760;9.178;2023-02-28T05:30:14;6.28;;;3.95;;
37239;SDS011;23130;48.760;9.178;2023-02-28T05:32:40;7.13;;;4.38;;
37239;SDS011;23130;48.760;9.178;2023-02-28T05:35:08;9.30;;;4.78;;
37239;SDS011;23130;48.760;9.178;2023-02-28T05:37:35;8.68;;;4.85;;
37239;SDS011;23130;48.760;9.178;2023-02-28T05:40:01;6.63;;;4.18;;
37239;SDS011;23130;48.760;9.178;2023-02-28T05:42:31;10.27;;;4.97;;
37239;SDS011;23130;48.760;9.178;2023-02-28T05:44:56;10.48;;;4.80;;
37239;SDS011;23130;48.760;9.178;2023-02-28T05:47:22;7.03;;;4.65;;
37239;SDS011;23130;48.760;9.178;2023-02-28T05:49:47;9.82;;;4.88;;
37239;SDS011;23130;48.760;9.178;2023-02-28T05:52:13;7.70;;;3.90;;
37239;SDS011;23130;48.760;9.178;2023-02-28T05:54:40;8.23;;;4.88;;
37239;SDS011;23130;48.760;9.178;2023-02-28T05:57:06;7.18;;;4.25;;
37239;SDS011;23130;48.760;9.178;2023-02-28T05:59:31;8.57;;;4.97;;
37239;SDS011;23130;48.760;9.178;2023-02-28T06:01:57;7.85;;;4.43;;
37239;SDS011;23130;48.760;9.178;2023-02-28T06:04:22;11.85;;;5.25;;
37239;SDS011;23130;48.760;9.178;2023-02-28T06:06:48;7.25;;;4.38;;
37239;SDS011;23130;48.760;9.178;2023-02-28T06:09:15;12.15;;;5.82;;
37239;SDS011;23130;48.760;9.178;2023-02-28T06:11:41;10.45;;;5.63;;
37239;SDS011;23130;48.760;9.178;2023-02-28T06:14:07;8.63;;;4.75;;
37239;SDS011;23130;48.760;9.178;2023-02-28T06:16:37;8.27;;;4.93;;
37239;SDS011;23130;48.760;9.178;2023-02-28T06:19:03;9.52;;;4.97;;
37239;SDS011;23130;48.760;9.178;2023-02-28T06:21:29;8.13;;;4.57;;
37239;SDS011;23130;48.760;9.178;2023-02-28T06:23:55;11.52;;;6.35;;
37239;SDS011;23130;48.760;9.178;2023-02-28T06:26:22;7.68;;;4.43;;
37239;SDS011;23130;48.760;9.178;2023-02-28T06:28:48;8.80;;;5.10;;
37239;SDS011;23130;48.760;9.178;2023-02-28T06:31:15;14.20;;;6.00;;
37239;SDS011;23130;48.760;9.178;2023-02-28T06:33:42;8.25;;;4.50;;
37239;SDS011;23130;48.760;9.178;2023-02-28T06:36:09;8.65;;;5.20;;
37239;SDS011;23130;48.760;9.178;2023-02-28T06:38:36;13.95;;;5.70;;
37239;SDS011;23130;48.760;9.178;2023-02-28T06:41:02;8.20;;;5.13;;
37239;SDS011;23130;48.760;9.178;2023-02-28T06:43:29;8.38;;;5.13;;
37239;SDS011;23130;48.760;9.178;2023-02-28T06:45:56;13.93;;;5.85;;
37239;SDS011;23130;48.760;9.178;2023-02-28T06:48:23;11.95;;;5.25;;
37239;SDS011;23130;48.760;9.178;2023-02-28T06:50:49;10.02;;;5.53;;
37239;SDS011;23130;48.760;9.178;2023-02-28T06:53:15;8.57;;;5.43;;
37239;SDS011;23130;48.760;9.178;2023-02-28T06:55:40;10.50;;;5.65;;
37239;SDS011;23130;48.760;9.178;2023-02-28T06:58:06;11.50;;;5.18;;
37239;SDS011;23130;48.760;9.178;2023-02-28T07:00:42;9.32;;;4.82;;
37239;SDS011;23130;48.760;9.178;2023-02-28T07:03:09;11.52;;;6.13;;
37239;SDS011;23130;48.760;9.178;2023-02-28T07:05:35;7.03;;;5.63;;
37239;SDS011;23130;48.760;9.178;2023-02-28T07:08:02;11.82;;;5.75;;
37239;SDS011;23130;48.760;9.178;2023-02-28T07:10:29;10.77;;;6.35;;
37239;SDS011;23130;48.760;9.178;2023-02-28T07:12:55;9.68;;;5.82;;
37239;SDS011;23130;48.760;9.178;2023-02-28T07:15:20;11.50;;;5.40;;
37239;SDS011;23130;48.760;9.178;2023-02-28T07:17:46;11.98;;;5.47;;
37239;SDS011;23130;48.760;9.178;2023-02-28T07:20:11;8.80;;;4.97;;
37239;SDS011;23130;48.760;9.178;2023-02-28T07:22:37;12.10;;;5.88;;
37239;SDS011;23130;48.760;9.178;2023-02-28T07:25:04;11.20;;;5.88;;
37239;SDS011;23130;48.760;9.178;2023-02-28T07:27:30;10.10;;;5.55;;
37239;SDS011;23130;48.760;9.178;2023-02-28T07:29:55;12.13;;;5.82;;
37239;SDS011;23130;48.760;9.178;2023-02-28T07:32:21;11.90;;;5.80;;
37239;SDS011;23130;48.760;9.178;2023-02-28T07:34:47;9.07;;;5.95;;
37239;SDS011;23130;48.760;9.178;2023-02-28T07:37:13;9.57;;;6.07;;
37239;SDS011;23130;48.760;9.178;2023-02-28T07:39:39;11.80;;;6.15;;
37239;SDS011;23130;48.760;9.178;2023-02-28T07:42:08;9.18;;;5.60;;
37239;SDS011;23130;48.760;9.178;2023-02-28T07:44:36;13.40;;;5.72;;
37239;SDS011;23130;48.760;9.178;2023-02-28T07:47:05;14.35;;;6.30;;
37239;SDS011;23130;48.760;9.178;2023-02-28T07:49:32;10.52;;;6.47;;
37239;SDS011;23130;48.760;9.178;2023-02-28T07:51:59;11.85;;;5.85;;
37239;SDS011;23130;48.760;9.178;2023-02-28T07:54:24;14.80;;;6.72;;
37239;SDS011;23130;48.760;9.178;2023-02-28T07:56:50;10.43;;;5.80;;
37239;SDS011;23130;48.760;9.178;2023-02-28T07:59:15;11.70;;;6.60;;
37239;SDS011;23130;48.760;9.178;2023-02-28T08:01:41;10.70;;;5.97;;
37239;SDS011;23130;48.760;9.178;2023-02-28T08:04:08;10.73;;;6.10;;
37239;SDS011;23130;48.760;9.178;2023-02-28T08:06:37;14.65;;;5.60;;
37239;SDS011;23130;48.760;9.178;2023-02-28T08:09:02;9.55;;;5.65;;
37239;SDS011;23130;48.760;9.178;2023-02-28T08:11:28;9.38;;;5.95;;
37239;SDS011;23130;48.760;9.178;2023-02-28T08:13:54;10.75;;;6.40;;
37239;SDS011;23130;48.760;9.178;2023-02-28T08:16:20;11.77;;;6.43;;
37239;SDS011;23130;48.760;9.178;2023-02-28T08:18:47;13.27;;;6.88;;
37239;SDS011;23130;48.760;9.178;2023-02-28T08:21:17;11.82;;;6.30;;
37239;SDS011;23130;48.760;9.178;2023-02-28T08:23:43;14.55;;;7.22;;
37239;SDS011;23130;48.760;9.178;2023-02-28T08:26:11;9.65;;;5.90;;
37239;SDS011;23130;48.760;9.178;2023-02-28T08:28:37;10.55;;;6.43;;
37239;SDS011;23130;48.760;9.178;2023-02-28T08:31:06;9.50;;;6.28;;
37239;SDS011;23130;48.760;9.178;2023-02-28T08:36:04;12.20;;;5.93;;
37239;SDS011;23130;48.760;9.178;2023-02-28T08:38:30;12.48;;;6.82;;
37239;SDS011;23130;48.760;9.178;2023-02-28T08:40:57;12.45;;;6.50;;
37239;SDS011;23130;48.760;9.178;2023-02-28T08:43:23;9.68;;;6.50;;
37239;SDS011;23130;48.760;9.178;2023-02-28T08:45:53;11.32;;;5.82;;
37239;SDS011;23130;48.760;9.178;2023-02-28T08:48:19;16.08;;;6.80;;
37239;SDS011;23130;48.760;9.178;2023-02-28T08:50:54;17.98;;;7.10;;
37239;SDS011;23130;48.760;9.178;2023-02-28T08:53:22;13.07;;;7.22;;
37239;SDS011;23130;48.760;9.178;2023-02-28T08:55:55;11.80;;;6.55;;
37239;SDS011;23130;48.760;9.178;2023-02-28T08:58:41;11.05;;;6.22;;
37239;SDS011;23130;48.760;9.178;2023-02-28T09:01:09;10.65;;;5.28;;
37239;SDS011;23130;48.760;9.178;2023-02-28T09:03:37;11.93;;;7.15;;
37239;SDS011;23130;48.760;9.178;2023-02-28T09:06:03;10.77;;;6.35;;
37239;SDS011;23130;48.760;9.178;2023-02-28T09:08:30;10.88;;;6.20;;
37239;SDS011;23130;48.760;9.178;2023-02-28T09:10:56;11.43;;;6.57;;
37239;SDS011;23130;48.760;9.178;2023-02-28T09:13:23;12.55;;;6.80;;
37239;SDS011;23130;48.760;9.178;2023-02-28T09:15:50;10.50;;;6.60;;
37239;SDS011;23130;48.760;9.178;2023-02-28T09:18:16;10.82;;;6.57;;
37239;SDS011;23130;48.760;9.178;2023-02-28T09:20:42;14.27;;;7.03;;
37239;SDS011;23130;48.760;9.178;2023-02-28T09:23:08;10.25;;;6.68;;
37239;SDS011;23130;48.760;9.178;2023-02-28T09:25:36;11.15;;;6.47;;
37239;SDS011;23130;48.760;9.178;2023-02-28T09:28:02;16.60;;;7.03;;
37239;SDS011;23130;48.760;9.178;2023-02-28T09:30:29;10.73;;;6.55;;
37239;SDS011;23130;48.760;9.178;2023-02-28T09:32:55;10.52;;;6.53;;
37239;SDS011;23130;48.760;9.178;2023-02-28T09:35:21;10.45;;;5.97;;
37239;SDS011;23130;48.760;9.178;2023-02-28T09:37:48;12.38;;;6.90;;
37239;SDS011;23130;48.760;9.178;2023-02-28T09:40:15;12.38;;;6.30;;
37239;SDS011;23130;48.760;9.178;2023-02-28T09:42:44;14.00;;;7.18;;
37239;SDS011;23130;48.760;9.178;2023-02-28T09:45:29;11.57;;;6.35;;
37239;SDS011;23130;48.760;9.178;2023-02-28T09:48:03;10.00;;;5.80;;
37239;SDS011;23130;48.760;9.178;2023-02-28T09:50:37;16.20;;;6.63;;
37239;SDS011;23130;48.760;9.178;2023-02-28T09:53:11;8.98;;;5.88;;
37239;SDS011;23130;48.760;9.178;2023-02-28T09:55:47;11.68;;;7.15;;
37239;SDS011;23130;48.760;9.178;2023-02-28T09:58:20;11.63;;;7.70;;
37239;SDS011;23130;48.760;9.178;2023-02-28T10:00:58;13.55;;;7.85;;
37239;SDS011;23130;48.760;9.178;2023-02-28T10:03:33;10.70;;;6.65;;
37239;SDS011;23130;48.760;9.178;2023-02-28T10:06:08;12.93;;;7.03;;
37239;SDS011;23130;48.760;9.178;2023-02-28T10:11:27;9.80;;;6.28;;
37239;SDS011;23130;48.760;9.178;2023-02-28T10:14:04;14.23;;;7.30;;
37239;SDS011;23130;48.760;9.178;2023-02-28T10:16:56;10.80;;;6.90;;
37239;SDS011;23130;48.760;9.178;2023-02-28T10:19:28;10.52;;;6.47;;
37239;SDS011;23130;48.760;9.178;2023-02-28T10:24:50;12.10;;;7.07;;
37239;SDS011;23130;48.760;9.178;2023-02-28T10:27:24;11.35;;;6.88;;
37239;SDS011;23130;48.760;9.178;2023-02-28T10:29:54;14.02;;;6.60;;
37239;SDS011;23130;48.760;9.178;2023-02-28T10:32:28;12.80;;;7.22;;
37239;SDS011;23130;48.760;9.178;2023-02-28T10:35:03;9.98;;;6.68;;
37239;SDS011;23130;48.760;9.178;2023-02-28T10:37:44;10.60;;;7.32;;
37239;SDS011;23130;48.760;9.178;2023-02-28T10:40:25;12.50;;;7.25;;
37239;SDS011;23130;48.760;9.178;2023-02-28T10:42:55;12.80;;;7.25;;
37239;SDS011;23130;48.760;9.178;2023-02-28T10:45:29;10.48;;;7.47;;
37239;SDS011;23130;48.760;9.178;2023-02-28T10:48:03;11.15;;;7.15;;
37239;SDS011;23130;48.760;9.178;2023-02-28T10:50:35;14.65;;;7.00;;
37239;SDS011;23130;48.760;9.178;2023-02-28T10:56:00;13.23;;;7.68;;
37239;SDS011;23130;48.760;9.178;2023-02-28T11:01:18;13.82;;;6.63;;
37239;SDS011;23130;48.760;9.178;2023-02-28T11:03:46;14.00;;;8.05;;
37239;SDS011;23130;48.760;9.178;2023-02-28T11:06:14;11.57;;;6.85;;
37239;SDS011;23130;48.760;9.178;2023-02-28T11:08:43;11.50;;;6.75;;
37239;SDS011;23130;48.760;9.178;2023-02-28T11:11:41;11.40;;;7.35;;
37239;SDS011;23130;48.760;9.178;2023-02-28T11:14:17;11.13;;;6.90;;
37239;SDS011;23130;48.760;9.178;2023-02-28T11:16:46;12.55;;;7.47;;
37239;SDS011;23130;48.760;9.178;2023-02-28T11:19:17;15.02;;;7.50;;
37239;SDS011;23130;48.760;9.178;2023-02-28T11:21:52;12.75;;;7.10;;
37239;SDS011;23130;48.760;9.178;2023-02-28T11:24:37;14.40;;;8.00;;
37239;SDS011;23130;48.760;9.178;2023-02-28T11:29:55;13.25;;;7.53;;
37239;SDS011;23130;48.760;9.178;2023-02-28T11:32:22;14.15;;;7.93;;
37239;SDS011;23130;48.760;9.178;2023-02-28T11:37:34;15.90;;;7.18;;
37239;SDS011;23130;48.760;9.178;2023-02-28T11:40:00;11.05;;;6.72;;
37239;SDS011;23130;48.760;9.178;2023-02-28T11:45:16;14.88;;;7.40;;
37239;SDS011;23130;48.760;9.178;2023-02-28T11:56:29;15.38;;;7.78;;
37239;SDS011;23130;48.760;9.178;2023-02-28T11:59:21;11.15;;;7.65;;
37239;SDS011;23130;48.760;9.178;2023-02-28T12:05:14;10.60;;;6.35;;
37239;SDS011;23130;48.760;9.178;2023-02-28T12:08:04;14.50;;;7.20;;
37239;SDS011;23130;48.760;9.178;2023-02-28T12:15:57;11.50;;;7.25;;
37239;SDS011;23130;48.760;9.178;2023-02-28T12:19:27;12.07;;;8.27;;
37239;SDS011;23130;48.760;9.178;2023-02-28T12:21:46;12.57;;;6.97;;
37239;SDS011;23130;48.760;9.178;2023-02-28T12:27:15;11.10;;;7.10;;
37239;SDS011;23130;48.760;9.178;2023-02-28T12:35:02;10.20;;;6.80;;
37239;SDS011;23130;48.760;9.178;2023-02-28T12:37:36;12.38;;;7.40;;
37239;SDS011;23130;48.760;9.178;2023-02-28T12:40:05;11.02;;;6.35;;
37239;SDS011;23130;48.760;9.178;2023-02-28T12:42:39;13.40;;;7.03;;
37239;SDS011;23130;48.760;9.178;2023-02-28T12:45:13;11.93;;;7.70;;
37239;SDS011;23130;48.760;9.178;2023-02-28T12:47:55;12.48;;;7.07;;
37239;SDS011;23130;48.760;9.178;2023-02-28T12:50:25;12.35;;;7.65;;
37239;SDS011;23130;48.760;9.178;2023-02-28T12:52:54;10.82;;;7.18;;
37239;SDS011;23130;48.760;9.178;2023-02-28T12:58:15;10.90;;;7.40;;
37239;SDS011;23130;48.760;9.178;2023-02-28T13:01:08;11.52;;;7.38;;
37239;SDS011;23130;48.760;9.178;2023-02-28T13:09:39;11.02;;;7.32;;
37239;SDS011;23130;48.760;9.178;2023-02-28T13:12:14;15.45;;;7.85;;
37239;SDS011;23130;48.760;9.178;2023-02-28T13:14:41;13.93;;;8.00;;
37239;SDS011;23130;48.760;9.178;2023-02-28T13:19:34;11.32;;;7.10;;
37239;SDS011;23130;48.760;9.178;2023-02-28T13:22:02;12.40;;;7.90;;
37239;SDS011;23130;48.760;9.178;2023-02-28T13:24:36;11.13;;;7.47;;
37239;SDS011;23130;48.760;9.178;2023-02-28T13:29:34;14.02;;;8.05;;
37239;SDS011;23130;48.760;9.178;2023-02-28T13:34:34;12.85;;;7.70;;
37239;SDS011;23130;48.760;9.178;2023-02-28T13:47:30;12.63;;;7.15;;
37239;SDS011;23130;48.760;9.178;2023-02-28T14:03:58;12.02;;;6.63;;
37239;SDS011;23130;48.760;9.178;2023-02-28T14:09:06;14.60;;;7.75;;
37239;SDS011;23130;48.760;9.178;2023-02-28T14:11:41;11.38;;;7.00;;
37239;SDS011;23130;48.760;9.178;2023-02-28T14:14:10;12.73;;;7.35;;
37239;SDS011;23130;48.760;9.178;2023-02-28T14:17:05;10.85;;;6.97;;
37239;SDS011;23130;48.760;9.178;2023-02-28T14:19:32;11.80;;;7.22;;
37239;SDS011;23130;48.760;9.178;2023-02-28T14:27:58;10.63;;;7.85;;
37239;SDS011;23130;48.760;9.178;2023-02-28T14:30:42;12.18;;;7.20;;
37239;SDS011;23130;48.760;9.178;2023-02-28T14:33:42;8.75;;;5.88;;
37239;SDS011;23130;48.760;9.178;2023-02-28T14:36:24;9.40;;;6.90;;
37239;SDS011;23130;48.760;9.178;2023-02-28T14:38:57;11.00;;;7.45;;
37239;SDS011;23130;48.760;9.178;2023-02-28T14:41:38;9.95;;;6.85;;
37239;SDS011;23130;48.760;9.178;2023-02-28T14:44:15;10.93;;;7.05;;
37239;SDS011;23130;48.760;9.178;2023-02-28T14:46:49;10.88;;;6.47;;
37239;SDS011;23130;48.760;9.178;2023-02-28T14:49:23;12.93;;;7.90;;
37239;SDS011;23130;48.760;9.178;2023-02-28T14:52:39;11.13;;;6.78;;
37239;SDS011;23130;48.760;9.178;2023-02-28T14:54:52;10.65;;;6.72;;
37239;SDS011;23130;48.760;9.178;2023-02-28T14:57:27;9.32;;;6.18;;
37239;SDS011;23130;48.760;9.178;2023-02-28T14:59:59;8.05;;;6.32;;
37239;SDS011;23130;48.760;9.178;2023-02-28T15:02:39;11.70;;;7.05;;
37239;SDS011;23130;48.760;9.178;2023-02-28T15:07:44;12.07;;;6.80;;
37239;SDS011;23130;48.760;9.178;2023-02-28T15:12:39;12.18;;;7.82;;
37239;SDS011;23130;48.760;9.178;2023-02-28T15:15:14;10.80;;;7.70;;
37239;SDS011;23130;48.760;9.178;2023-02-28T15:17:50;9.85;;;6.55;;
37239;SDS011;23130;48.760;9.178;2023-02-28T15:20:18;14.98;;;7.97;;
37239;SDS011;23130;48.760;9.178;2023-02-28T15:22:44;10.73;;;6.85;;
37239;SDS011;23130;48.760;9.178;2023-02-28T15:25:13;10.60;;;7.13;;
37239;SDS011;23130;48.760;9.178;2023-02-28T15:27:44;9.77;;;6.53;;
37239;SDS011;23130;48.760;9.178;2023-02-28T15:30:24;11.43;;;7.22;;
37239;SDS011;23130;48.760;9.178;2023-02-28T15:33:01;11.55;;;7.03;;
37239;SDS011;23130;48.760;9.178;2023-02-28T15:35:48;10.43;;;7.15;;
37239;SDS011;23130;48.760;9.178;2023-02-28T15:38:16;13.27;;;7.63;;
37239;SDS011;23130;48.760;9.178;2023-02-28T15:40:43;13.48;;;7.65;;
37239;SDS011;23130;48.760;9.178;2023-02-28T15:43:18;10.63;;;7.35;;
37239;SDS011;23130;48.760;9.178;2023-02-28T15:46:13;10.05;;;6.95;;
37239;SDS011;23130;48.760;9.178;2023-02-28T15:48:44;11.57;;;7.43;;
37239;SDS011;23130;48.760;9.178;2023-02-28T15:51:37;11.23;;;6.95;;
37239;SDS011;23130;48.760;9.178;2023-02-28T15:54:04;13.70;;;7.13;;
37239;SDS011;23130;48.760;9.178;2023-02-28T15:56:33;10.45;;;7.28;;
37239;SDS011;23130;48.760;9.178;2023-02-28T15:59:04;11.55;;;6.40;;
37239;SDS011;23130;48.760;9.178;2023-02-28T16:01:32;15.02;;;8.30;;
37239;SDS011;23130;48.760;9.178;2023-02-28T16:04:20;11.90;;;7.55;;
37239;SDS011;23130;48.760;9.178;2023-02-28T16:06:45;12.93;;;7.40;;
37239;SDS011;23130;48.760;9.178;2023-02-28T16:09:32;13.60;;;7.80;;
37239;SDS011;23130;48.760;9.178;2023-02-28T16:12:01;16.40;;;8.30;;
37239;SDS011;23130;48.760;9.178;2023-02-28T16:14:28;13.27;;;7.95;;
37239;SDS011;23130;48.760;9.178;2023-02-28T16:17:02;11.13;;;7.35;;
37239;SDS011;23130;48.760;9.178;2023-02-28T16:19:31;13.52;;;8.18;;
37239;SDS011;23130;48.760;9.178;2023-02-28T16:21:57;13.20;;;7.93;;
37239;SDS011;23130;48.760;9.178;2023-02-28T16:24:23;11.98;;;7.20;;
37239;SDS011;23130;48.760;9.178;2023-02-28T16:26:50;11.32;;;7.03;;
37239;SDS011;23130;48.760;9.178;2023-02-28T16:29:21;10.10;;;7.20;;
37239;SDS011;23130;48.760;9.178;2023-02-28T16:31:50;12.45;;;7.90;;
37239;SDS011;23130;48.760;9.178;2023-02-28T16:34:15;14.05;;;7.03;;
37239;SDS011;23130;48.760;9.178;2023-02-28T16:36:41;14.55;;;7.32;;
37239;SDS011;23130;48.760;9.178;2023-02-28T16:39:06;12.20;;;7.35;;
37239;SDS011;23130;48.760;9.178;2023-02-28T16:41:32;14.52;;;7.97;;
37239;SDS011;23130;48.760;9.178;2023-02-28T16:44:02;11.63;;;8.05;;
37239;SDS011;23130;48.760;9.178;2023-02-28T16:46:33;11.77;;;7.47;;
37239;SDS011;23130;48.760;9.178;2023-02-28T16:49:00;12.80;;;8.00;;
37239;SDS011;23130;48.760;9.178;2023-02-28T16:51:25;13.70;;;7.63;;
37239;SDS011;23130;48.760;9.178;2023-02-28T16:53:52;13.07;;;8.65;;
37239;SDS011;23130;48.760;9.178;2023-02-28T16:56:22;13.45;;;8.35;;
37239;SDS011;23130;48.760;9.178;2023-02-28T16:58:49;11.98;;;6.88;;
37239;SDS011;23130;48.760;9.178;2023-02-28T17:01:16;13.30;;;8.38;;
37239;SDS011;23130;48.760;9.178;2023-02-28T17:03:46;12.25;;;7.60;;
37239;SDS011;23130;48.760;9.178;2023-02-28T17:06:17;16.45;;;9.23;;
37239;SDS011;23130;48.760;9.178;2023-02-28T17:08:46;11.18;;;7.70;;
37239;SDS011;23130;48.760;9.178;2023-02-28T17:11:13;13.32;;;8.07;;